sensor_id;sensor_type;location;lat;lon;timestamp;P1;durP1;ratioP1;P2;durP2;ratioP2
19358;SDS011;9815;52.334;20.890;2023-10-19T00:00:47;60.10;;;29.73;;
19358;SDS011;9815;52.334;20.890;2023-10-19T00:03:16;67.43;;;31.33;;
19358;SDS011;9815;52.334;20.890;2023-10-19T00:05:45;69.20;;;30.57;;
19358;SDS011;9815;52.334;20.890;2023-10-19T00:08:16;61.67;;;28.93;;
19358;SDS011;9815;52.334;20.890;2023-10-19T00:10:47;57.43;;;27.90;;
19358;SDS011;9815;52.334;20.890;2023-10-19T00:13:28;69.60;;;28.37;;
19358;SDS011;9815;52.334;20.890;2023-10-19T00:15:57;67.17;;;29.73;;
19358;SDS011;9815;52.334;20.890;2023-10-19T00:18:26;59.33;;;28.23;;
19358;SDS011;9815;52.334;20.890;2023-10-19T00:20:54;55.20;;;27.10;;
19358;SDS011;9815;52.334;20.890;2023-10-19T00:23:38;60.00;;;27.67;;
19358;SDS011;9815;52.334;20.890;2023-10-19T00:26:06;61.93;;;28.13;;
19358;SDS011;9815;52.334;20.890;2023-10-19T00:28:45;60.40;;;28.67;;
19358;SDS011;9815;52.334;20.890;2023-10-19T00:31:16;62.60;;;28.83;;
19358;SDS011;9815;52.334;20.890;2023-10-19T00:33:46;61.60;;;29.77;;
19358;SDS011;9815;52.334;20.890;2023-10-19T00:36:18;56.73;;;28.07;;
19358;SDS011;9815;52.334;20.890;2023-10-19T00:38:49;62.20;;;29.30;;
19358;SDS011;9815;52.334;20.890;2023-10-19T00:41:20;59.10;;;28.60;;
19358;SDS011;9815;52.334;20.890;2023-10-19T00:43:50;60.23;;;29.37;;
19358;SDS011;9815;52.334;20.890;2023-10-19T00:46:24;60.60;;;28.47;;
19358;SDS011;9815;52.334;20.890;2023-10-19T00:48:59;59.67;;;28.33;;
19358;SDS011;9815;52.334;20.890;2023-10-19T00:51:33;52.60;;;27.60;;
19358;SDS011;9815;52.334;20.890;2023-10-19T00:54:23;57.53;;;28.50;;
19358;SDS011;9815;52.334;20.890;2023-10-19T00:56:58;59.53;;;27.73;;
19358;SDS011;9815;52.334;20.890;2023-10-19T00:59:31;59.00;;;26.73;;
19358;SDS011;9815;52.334;20.890;2023-10-19T01:02:05;56.50;;;25.80;;
19358;SDS011;9815;52.334;20.890;2023-10-19T01:04:44;54.10;;;24.93;;
19358;SDS011;9815;52.334;20.890;2023-10-19T01:07:17;54.03;;;26.57;;
19358;SDS011;9815;52.334;20.890;2023-10-19T01:09:51;53.93;;;25.50;;
19358;SDS011;9815;52.334;20.890;2023-10-19T01:12:21;50.97;;;25.47;;
19358;SDS011;9815;52.334;20.890;2023-10-19T01:15:05;50.37;;;23.90;;
19358;SDS011;9815;52.334;20.890;2023-10-19T01:17:39;50.10;;;25.00;;
19358;SDS011;9815;52.334;20.890;2023-10-19T01:20:11;59.23;;;25.40;;
19358;SDS011;9815;52.334;20.890;2023-10-19T01:22:49;57.07;;;24.83;;
19358;SDS011;9815;52.334;20.890;2023-10-19T01:25:47;61.87;;;25.07;;
19358;SDS011;9815;52.334;20.890;2023-10-19T01:28:26;51.60;;;24.37;;
19358;SDS011;9815;52.334;20.890;2023-10-19T01:31:09;54.13;;;25.13;;
19358;SDS011;9815;52.334;20.890;2023-10-19T01:33:41;54.63;;;23.57;;
19358;SDS011;9815;52.334;20.890;2023-10-19T01:36:11;56.00;;;23.90;;
19358;SDS011;9815;52.334;20.890;2023-10-19T01:38:42;49.27;;;24.23;;
19358;SDS011;9815;52.334;20.890;2023-10-19T01:41:09;57.73;;;24.67;;
19358;SDS011;9815;52.334;20.890;2023-10-19T01:43:45;52.73;;;23.27;;
19358;SDS011;9815;52.334;20.890;2023-10-19T01:46:13;48.40;;;24.33;;
19358;SDS011;9815;52.334;20.890;2023-10-19T01:48:49;50.87;;;23.73;;
19358;SDS011;9815;52.334;20.890;2023-10-19T01:51:21;49.67;;;23.90;;
19358;SDS011;9815;52.334;20.890;2023-10-19T01:53:52;42.70;;;21.93;;
19358;SDS011;9815;52.334;20.890;2023-10-19T01:56:22;51.80;;;24.47;;
19358;SDS011;9815;52.334;20.890;2023-10-19T01:58:50;53.70;;;24.10;;
19358;SDS011;9815;52.334;20.890;2023-10-19T02:01:19;50.77;;;23.17;;
19358;SDS011;9815;52.334;20.890;2023-10-19T02:03:48;44.27;;;22.20;;
19358;SDS011;9815;52.334;20.890;2023-10-19T02:06:22;51.93;;;23.60;;
19358;SDS011;9815;52.334;20.890;2023-10-19T02:08:54;59.33;;;23.93;;
19358;SDS011;9815;52.334;20.890;2023-10-19T02:11:27;52.50;;;24.50;;
19358;SDS011;9815;52.334;20.890;2023-10-19T02:13:55;63.33;;;25.60;;
19358;SDS011;9815;52.334;20.890;2023-10-19T02:16:26;53.93;;;24.53;;
19358;SDS011;9815;52.334;20.890;2023-10-19T02:18:56;53.83;;;26.03;;
19358;SDS011;9815;52.334;20.890;2023-10-19T02:21:24;48.63;;;24.03;;
19358;SDS011;9815;52.334;20.890;2023-10-19T02:23:58;47.70;;;23.93;;
19358;SDS011;9815;52.334;20.890;2023-10-19T02:26:26;50.20;;;23.23;;
19358;SDS011;9815;52.334;20.890;2023-10-19T02:28:57;53.47;;;23.83;;
19358;SDS011;9815;52.334;20.890;2023-10-19T02:31:25;52.07;;;24.17;;
19358;SDS011;9815;52.334;20.890;2023-10-19T02:33:54;53.53;;;24.40;;
19358;SDS011;9815;52.334;20.890;2023-10-19T02:36:25;55.03;;;24.50;;
19358;SDS011;9815;52.334;20.890;2023-10-19T02:38:55;52.67;;;24.07;;
19358;SDS011;9815;52.334;20.890;2023-10-19T02:41:26;48.63;;;23.37;;
19358;SDS011;9815;52.334;20.890;2023-10-19T02:43:55;52.60;;;23.30;;
19358;SDS011;9815;52.334;20.890;2023-10-19T02:46:35;44.70;;;22.07;;
19358;SDS011;9815;52.334;20.890;2023-10-19T02:49:05;43.33;;;22.90;;
19358;SDS011;9815;52.334;20.890;2023-10-19T02:51:38;46.07;;;23.00;;
19358;SDS011;9815;52.334;20.890;2023-10-19T02:54:07;48.77;;;22.47;;
19358;SDS011;9815;52.334;20.890;2023-10-19T02:56:45;50.27;;;22.37;;
19358;SDS011;9815;52.334;20.890;2023-10-19T02:59:15;49.60;;;23.03;;
19358;SDS011;9815;52.334;20.890;2023-10-19T03:01:43;44.00;;;22.00;;
19358;SDS011;9815;52.334;20.890;2023-10-19T03:04:12;54.93;;;21.97;;
19358;SDS011;9815;52.334;20.890;2023-10-19T03:06:39;50.03;;;22.10;;
19358;SDS011;9815;52.334;20.890;2023-10-19T03:09:08;49.23;;;22.20;;
19358;SDS011;9815;52.334;20.890;2023-10-19T03:11:40;51.53;;;24.43;;
19358;SDS011;9815;52.334;20.890;2023-10-19T03:14:10;50.13;;;23.57;;
19358;SDS011;9815;52.334;20.890;2023-10-19T03:16:38;50.00;;;23.90;;
19358;SDS011;9815;52.334;20.890;2023-10-19T03:19:09;52.87;;;25.13;;
19358;SDS011;9815;52.334;20.890;2023-10-19T03:21:36;48.13;;;23.63;;
19358;SDS011;9815;52.334;20.890;2023-10-19T03:24:10;54.80;;;24.47;;
19358;SDS011;9815;52.334;20.890;2023-10-19T03:26:49;55.37;;;24.77;;
19358;SDS011;9815;52.334;20.890;2023-10-19T03:29:19;53.87;;;23.83;;
19358;SDS011;9815;52.334;20.890;2023-10-19T03:31:52;49.07;;;24.30;;
19358;SDS011;9815;52.334;20.890;2023-10-19T03:34:20;44.90;;;23.53;;
19358;SDS011;9815;52.334;20.890;2023-10-19T03:36:50;52.73;;;24.43;;
19358;SDS011;9815;52.334;20.890;2023-10-19T03:39:19;47.33;;;24.10;;
19358;SDS011;9815;52.334;20.890;2023-10-19T03:41:48;49.63;;;23.83;;
19358;SDS011;9815;52.334;20.890;2023-10-19T03:44:20;44.57;;;23.13;;
19358;SDS011;9815;52.334;20.890;2023-10-19T03:46:51;53.50;;;23.47;;
19358;SDS011;9815;52.334;20.890;2023-10-19T03:49:24;49.63;;;23.73;;
19358;SDS011;9815;52.334;20.890;2023-10-19T03:51:57;46.17;;;24.33;;
19358;SDS011;9815;52.334;20.890;2023-10-19T03:54:27;56.53;;;25.67;;
19358;SDS011;9815;52.334;20.890;2023-10-19T03:56:59;51.37;;;24.50;;
19358;SDS011;9815;52.334;20.890;2023-10-19T03:59:34;47.20;;;23.87;;
19358;SDS011;9815;52.334;20.890;2023-10-19T04:02:04;46.83;;;22.57;;
19358;SDS011;9815;52.334;20.890;2023-10-19T04:04:36;54.13;;;25.43;;
19358;SDS011;9815;52.334;20.890;2023-10-19T04:07:10;48.50;;;24.77;;
19358;SDS011;9815;52.334;20.890;2023-10-19T04:09:45;48.47;;;25.07;;
19358;SDS011;9815;52.334;20.890;2023-10-19T04:12:26;54.27;;;23.47;;
19358;SDS011;9815;52.334;20.890;2023-10-19T04:14:58;45.87;;;23.47;;
19358;SDS011;9815;52.334;20.890;2023-10-19T04:17:36;41.27;;;22.30;;
19358;SDS011;9815;52.334;20.890;2023-10-19T04:20:06;50.87;;;23.90;;
19358;SDS011;9815;52.334;20.890;2023-10-19T04:22:47;49.83;;;23.70;;
19358;SDS011;9815;52.334;20.890;2023-10-19T04:25:18;68.13;;;31.23;;
19358;SDS011;9815;52.334;20.890;2023-10-19T04:27:47;77.13;;;34.50;;
19358;SDS011;9815;52.334;20.890;2023-10-19T04:30:17;83.90;;;37.87;;
19358;SDS011;9815;52.334;20.890;2023-10-19T04:32:49;85.53;;;37.50;;
19358;SDS011;9815;52.334;20.890;2023-10-19T04:35:18;88.83;;;36.93;;
19358;SDS011;9815;52.334;20.890;2023-10-19T04:37:49;81.73;;;36.43;;
19358;SDS011;9815;52.334;20.890;2023-10-19T04:40:19;69.47;;;31.63;;
19358;SDS011;9815;52.334;20.890;2023-10-19T04:42:48;76.43;;;31.50;;
19358;SDS011;9815;52.334;20.890;2023-10-19T04:45:19;65.83;;;30.80;;
19358;SDS011;9815;52.334;20.890;2023-10-19T04:47:49;70.80;;;31.10;;
19358;SDS011;9815;52.334;20.890;2023-10-19T04:50:19;64.23;;;29.87;;
19358;SDS011;9815;52.334;20.890;2023-10-19T04:52:48;67.23;;;30.63;;
19358;SDS011;9815;52.334;20.890;2023-10-19T04:55:16;62.77;;;28.93;;
19358;SDS011;9815;52.334;20.890;2023-10-19T04:57:45;54.87;;;29.30;;
19358;SDS011;9815;52.334;20.890;2023-10-19T05:00:13;60.57;;;28.20;;
19358;SDS011;9815;52.334;20.890;2023-10-19T05:02:44;61.50;;;29.33;;
19358;SDS011;9815;52.334;20.890;2023-10-19T05:05:12;67.00;;;29.67;;
19358;SDS011;9815;52.334;20.890;2023-10-19T05:07:43;105.93;;;40.77;;
19358;SDS011;9815;52.334;20.890;2023-10-19T05:10:12;87.53;;;38.17;;
19358;SDS011;9815;52.334;20.890;2023-10-19T05:12:40;104.23;;;41.57;;
19358;SDS011;9815;52.334;20.890;2023-10-19T05:15:09;90.63;;;38.43;;
19358;SDS011;9815;52.334;20.890;2023-10-19T05:17:37;104.10;;;41.93;;
19358;SDS011;9815;52.334;20.890;2023-10-19T05:20:08;113.93;;;45.43;;
19358;SDS011;9815;52.334;20.890;2023-10-19T05:22:37;123.07;;;49.43;;
19358;SDS011;9815;52.334;20.890;2023-10-19T05:25:06;154.83;;;55.30;;
19358;SDS011;9815;52.334;20.890;2023-10-19T05:27:35;142.93;;;53.33;;
19358;SDS011;9815;52.334;20.890;2023-10-19T05:30:05;139.37;;;52.47;;
19358;SDS011;9815;52.334;20.890;2023-10-19T05:32:36;122.43;;;46.73;;
19358;SDS011;9815;52.334;20.890;2023-10-19T05:35:05;105.40;;;42.33;;
19358;SDS011;9815;52.334;20.890;2023-10-19T05:37:39;96.77;;;41.27;;
19358;SDS011;9815;52.334;20.890;2023-10-19T05:40:09;100.17;;;41.30;;
19358;SDS011;9815;52.334;20.890;2023-10-19T05:42:41;93.63;;;38.77;;
19358;SDS011;9815;52.334;20.890;2023-10-19T05:45:09;96.53;;;39.93;;
19358;SDS011;9815;52.334;20.890;2023-10-19T05:47:40;92.93;;;40.10;;
19358;SDS011;9815;52.334;20.890;2023-10-19T05:50:10;76.30;;;36.30;;
19358;SDS011;9815;52.334;20.890;2023-10-19T05:52:41;80.63;;;37.00;;
19358;SDS011;9815;52.334;20.890;2023-10-19T05:55:09;90.67;;;37.63;;
19358;SDS011;9815;52.334;20.890;2023-10-19T05:57:38;92.17;;;39.50;;
19358;SDS011;9815;52.334;20.890;2023-10-19T06:00:08;89.93;;;39.50;;
19358;SDS011;9815;52.334;20.890;2023-10-19T06:02:41;89.33;;;39.00;;
19358;SDS011;9815;52.334;20.890;2023-10-19T06:05:13;91.97;;;39.13;;
19358;SDS011;9815;52.334;20.890;2023-10-19T06:07:43;81.10;;;39.43;;
19358;SDS011;9815;52.334;20.890;2023-10-19T06:10:12;95.53;;;41.53;;
19358;SDS011;9815;52.334;20.890;2023-10-19T06:12:43;87.00;;;39.70;;
19358;SDS011;9815;52.334;20.890;2023-10-19T06:15:13;97.80;;;40.70;;
19358;SDS011;9815;52.334;20.890;2023-10-19T06:17:43;92.63;;;40.97;;
19358;SDS011;9815;52.334;20.890;2023-10-19T06:20:14;90.93;;;40.43;;
19358;SDS011;9815;52.334;20.890;2023-10-19T06:22:50;87.47;;;39.47;;
19358;SDS011;9815;52.334;20.890;2023-10-19T06:25:20;85.03;;;39.93;;
19358;SDS011;9815;52.334;20.890;2023-10-19T06:27:49;84.20;;;39.77;;
19358;SDS011;9815;52.334;20.890;2023-10-19T06:30:19;79.73;;;39.17;;
19358;SDS011;9815;52.334;20.890;2023-10-19T06:32:50;87.10;;;38.83;;
19358;SDS011;9815;52.334;20.890;2023-10-19T06:35:22;78.60;;;38.13;;
19358;SDS011;9815;52.334;20.890;2023-10-19T06:37:50;72.90;;;36.03;;
19358;SDS011;9815;52.334;20.890;2023-10-19T06:40:21;76.83;;;36.53;;
19358;SDS011;9815;52.334;20.890;2023-10-19T06:42:50;75.17;;;36.30;;
19358;SDS011;9815;52.334;20.890;2023-10-19T06:45:18;76.17;;;34.47;;
19358;SDS011;9815;52.334;20.890;2023-10-19T06:47:47;79.03;;;37.00;;
19358;SDS011;9815;52.334;20.890;2023-10-19T06:50:17;80.77;;;36.13;;
19358;SDS011;9815;52.334;20.890;2023-10-19T06:52:48;76.37;;;35.80;;
19358;SDS011;9815;52.334;20.890;2023-10-19T06:55:17;76.73;;;35.90;;
19358;SDS011;9815;52.334;20.890;2023-10-19T06:57:47;73.17;;;34.33;;
19358;SDS011;9815;52.334;20.890;2023-10-19T07:00:16;68.43;;;35.37;;
19358;SDS011;9815;52.334;20.890;2023-10-19T07:02:46;77.77;;;35.27;;
19358;SDS011;9815;52.334;20.890;2023-10-19T07:05:15;72.83;;;34.33;;
19358;SDS011;9815;52.334;20.890;2023-10-19T07:07:50;76.50;;;34.60;;
19358;SDS011;9815;52.334;20.890;2023-10-19T07:10:22;59.97;;;32.00;;
19358;SDS011;9815;52.334;20.890;2023-10-19T07:12:52;65.23;;;32.97;;
19358;SDS011;9815;52.334;20.890;2023-10-19T07:15:21;71.70;;;33.13;;
19358;SDS011;9815;52.334;20.890;2023-10-19T07:17:51;70.80;;;33.13;;
19358;SDS011;9815;52.334;20.890;2023-10-19T07:20:21;69.33;;;34.73;;
19358;SDS011;9815;52.334;20.890;2023-10-19T07:22:55;64.23;;;33.23;;
19358;SDS011;9815;52.334;20.890;2023-10-19T07:25:26;66.13;;;31.03;;
19358;SDS011;9815;52.334;20.890;2023-10-19T07:27:55;62.57;;;31.43;;
19358;SDS011;9815;52.334;20.890;2023-10-19T07:30:26;60.83;;;31.33;;
19358;SDS011;9815;52.334;20.890;2023-10-19T07:32:54;63.37;;;30.30;;
19358;SDS011;9815;52.334;20.890;2023-10-19T07:35:25;61.03;;;30.97;;
19358;SDS011;9815;52.334;20.890;2023-10-19T07:37:57;70.43;;;32.90;;
19358;SDS011;9815;52.334;20.890;2023-10-19T07:40:25;64.13;;;32.27;;
19358;SDS011;9815;52.334;20.890;2023-10-19T07:42:54;63.03;;;30.93;;
19358;SDS011;9815;52.334;20.890;2023-10-19T07:45:22;57.40;;;30.17;;
19358;SDS011;9815;52.334;20.890;2023-10-19T07:47:52;61.57;;;29.00;;
19358;SDS011;9815;52.334;20.890;2023-10-19T07:50:21;64.83;;;29.20;;
19358;SDS011;9815;52.334;20.890;2023-10-19T07:52:50;60.07;;;30.30;;
19358;SDS011;9815;52.334;20.890;2023-10-19T07:55:21;56.40;;;27.97;;
19358;SDS011;9815;52.334;20.890;2023-10-19T07:57:50;60.10;;;28.53;;
19358;SDS011;9815;52.334;20.890;2023-10-19T08:00:21;61.60;;;28.20;;
19358;SDS011;9815;52.334;20.890;2023-10-19T08:02:50;53.67;;;28.40;;
19358;SDS011;9815;52.334;20.890;2023-10-19T08:05:20;57.03;;;27.60;;
19358;SDS011;9815;52.334;20.890;2023-10-19T08:07:49;57.93;;;28.77;;
19358;SDS011;9815;52.334;20.890;2023-10-19T08:10:18;65.43;;;29.00;;
19358;SDS011;9815;52.334;20.890;2023-10-19T08:12:49;56.13;;;27.10;;
19358;SDS011;9815;52.334;20.890;2023-10-19T08:15:18;56.00;;;26.77;;
19358;SDS011;9815;52.334;20.890;2023-10-19T08:17:48;47.17;;;25.33;;
19358;SDS011;9815;52.334;20.890;2023-10-19T08:20:17;52.03;;;25.83;;
19358;SDS011;9815;52.334;20.890;2023-10-19T08:22:52;58.57;;;25.57;;
19358;SDS011;9815;52.334;20.890;2023-10-19T08:25:24;47.83;;;25.03;;
19358;SDS011;9815;52.334;20.890;2023-10-19T08:28:10;43.43;;;23.50;;
19358;SDS011;9815;52.334;20.890;2023-10-19T08:30:40;48.13;;;22.97;;
19358;SDS011;9815;52.334;20.890;2023-10-19T08:33:11;43.87;;;23.27;;
19358;SDS011;9815;52.334;20.890;2023-10-19T08:35:40;39.97;;;22.97;;
19358;SDS011;9815;52.334;20.890;2023-10-19T08:38:09;48.43;;;23.73;;
19358;SDS011;9815;52.334;20.890;2023-10-19T08:40:38;50.80;;;23.50;;
19358;SDS011;9815;52.334;20.890;2023-10-19T08:43:07;42.63;;;23.40;;
19358;SDS011;9815;52.334;20.890;2023-10-19T08:45:41;44.70;;;24.10;;
19358;SDS011;9815;52.334;20.890;2023-10-19T08:48:10;47.57;;;23.90;;
19358;SDS011;9815;52.334;20.890;2023-10-19T08:50:38;53.83;;;24.23;;
19358;SDS011;9815;52.334;20.890;2023-10-19T08:53:07;41.83;;;22.33;;
19358;SDS011;9815;52.334;20.890;2023-10-19T08:55:36;51.00;;;23.40;;
19358;SDS011;9815;52.334;20.890;2023-10-19T08:58:08;52.40;;;23.13;;
19358;SDS011;9815;52.334;20.890;2023-10-19T09:00:45;43.07;;;22.93;;
19358;SDS011;9815;52.334;20.890;2023-10-19T09:03:15;40.83;;;20.60;;
19358;SDS011;9815;52.334;20.890;2023-10-19T09:05:45;40.47;;;21.60;;
19358;SDS011;9815;52.334;20.890;2023-10-19T09:08:18;43.23;;;19.57;;
19358;SDS011;9815;52.334;20.890;2023-10-19T09:10:49;38.53;;;20.13;;
19358;SDS011;9815;52.334;20.890;2023-10-19T09:13:20;38.27;;;20.83;;
19358;SDS011;9815;52.334;20.890;2023-10-19T09:15:52;45.93;;;20.70;;
19358;SDS011;9815;52.334;20.890;2023-10-19T09:18:23;37.17;;;19.37;;
19358;SDS011;9815;52.334;20.890;2023-10-19T09:20:55;37.60;;;18.80;;
19358;SDS011;9815;52.334;20.890;2023-10-19T09:23:29;30.30;;;17.97;;
19358;SDS011;9815;52.334;20.890;2023-10-19T09:25:59;25.43;;;15.47;;
19358;SDS011;9815;52.334;20.890;2023-10-19T09:28:30;31.50;;;16.93;;
19358;SDS011;9815;52.334;20.890;2023-10-19T09:31:02;34.87;;;15.60;;
19358;SDS011;9815;52.334;20.890;2023-10-19T09:33:32;31.30;;;15.90;;
19358;SDS011;9815;52.334;20.890;2023-10-19T09:36:02;25.77;;;15.43;;
19358;SDS011;9815;52.334;20.890;2023-10-19T09:38:39;31.83;;;15.53;;
19358;SDS011;9815;52.334;20.890;2023-10-19T09:41:15;22.67;;;13.43;;
19358;SDS011;9815;52.334;20.890;2023-10-19T09:43:46;23.40;;;13.27;;
19358;SDS011;9815;52.334;20.890;2023-10-19T09:46:20;28.67;;;14.43;;
19358;SDS011;9815;52.334;20.890;2023-10-19T09:48:50;28.93;;;14.53;;
19358;SDS011;9815;52.334;20.890;2023-10-19T09:51:19;24.73;;;14.07;;
19358;SDS011;9815;52.334;20.890;2023-10-19T09:53:51;24.73;;;14.47;;
19358;SDS011;9815;52.334;20.890;2023-10-19T09:56:26;27.33;;;13.10;;
19358;SDS011;9815;52.334;20.890;2023-10-19T09:59:04;25.80;;;13.20;;
19358;SDS011;9815;52.334;20.890;2023-10-19T10:04:42;24.70;;;12.20;;
19358;SDS011;9815;52.334;20.890;2023-10-19T10:07:13;24.30;;;12.03;;
19358;SDS011;9815;52.334;20.890;2023-10-19T10:09:57;22.30;;;10.80;;
19358;SDS011;9815;52.334;20.890;2023-10-19T10:12:25;20.07;;;9.47;;
19358;SDS011;9815;52.334;20.890;2023-10-19T10:14:55;12.03;;;7.70;;
19358;SDS011;9815;52.334;20.890;2023-10-19T10:17:25;16.30;;;8.03;;
19358;SDS011;9815;52.334;20.890;2023-10-19T10:19:57;13.47;;;7.40;;
19358;SDS011;9815;52.334;20.890;2023-10-19T10:25:47;11.17;;;7.00;;
19358;SDS011;9815;52.334;20.890;2023-10-19T10:28:17;10.43;;;6.60;;
19358;SDS011;9815;52.334;20.890;2023-10-19T10:33:47;11.00;;;7.03;;
19358;SDS011;9815;52.334;20.890;2023-10-19T10:36:19;11.60;;;7.57;;
19358;SDS011;9815;52.334;20.890;2023-10-19T10:38:48;15.53;;;7.30;;
19358;SDS011;9815;52.334;20.890;2023-10-19T10:41:21;14.10;;;7.70;;
19358;SDS011;9815;52.334;20.890;2023-10-19T10:43:53;15.13;;;7.47;;
19358;SDS011;9815;52.334;20.890;2023-10-19T10:46:23;12.40;;;6.87;;
19358;SDS011;9815;52.334;20.890;2023-10-19T10:48:53;20.47;;;7.13;;
19358;SDS011;9815;52.334;20.890;2023-10-19T10:51:25;15.03;;;7.17;;
19358;SDS011;9815;52.334;20.890;2023-10-19T10:53:57;13.27;;;7.80;;
19358;SDS011;9815;52.334;20.890;2023-10-19T10:56:25;15.63;;;8.10;;
19358;SDS011;9815;52.334;20.890;2023-10-19T10:58:55;14.27;;;7.63;;
19358;SDS011;9815;52.334;20.890;2023-10-19T11:01:29;12.70;;;7.40;;
19358;SDS011;9815;52.334;20.890;2023-10-19T11:04:06;13.23;;;7.63;;
19358;SDS011;9815;52.334;20.890;2023-10-19T11:06:56;11.83;;;7.87;;
19358;SDS011;9815;52.334;20.890;2023-10-19T11:09:24;13.17;;;7.47;;
19358;SDS011;9815;52.334;20.890;2023-10-19T11:11:55;14.10;;;8.00;;
19358;SDS011;9815;52.334;20.890;2023-10-19T11:14:23;15.30;;;7.70;;
19358;SDS011;9815;52.334;20.890;2023-10-19T11:16:52;16.97;;;8.13;;
19358;SDS011;9815;52.334;20.890;2023-10-19T11:19:21;13.60;;;7.77;;
19358;SDS011;9815;52.334;20.890;2023-10-19T11:22:09;12.87;;;7.60;;
19358;SDS011;9815;52.334;20.890;2023-10-19T11:24:37;15.50;;;7.83;;
19358;SDS011;9815;52.334;20.890;2023-10-19T11:27:06;16.30;;;7.80;;
19358;SDS011;9815;52.334;20.890;2023-10-19T11:29:36;13.50;;;7.57;;
19358;SDS011;9815;52.334;20.890;2023-10-19T11:32:05;15.30;;;7.90;;
19358;SDS011;9815;52.334;20.890;2023-10-19T11:34:33;12.47;;;7.53;;
19358;SDS011;9815;52.334;20.890;2023-10-19T11:37:02;13.90;;;7.00;;
19358;SDS011;9815;52.334;20.890;2023-10-19T11:39:33;12.00;;;7.60;;
19358;SDS011;9815;52.334;20.890;2023-10-19T11:42:01;14.50;;;7.67;;
19358;SDS011;9815;52.334;20.890;2023-10-19T11:44:31;14.73;;;7.77;;
19358;SDS011;9815;52.334;20.890;2023-10-19T11:46:59;13.60;;;8.40;;
19358;SDS011;9815;52.334;20.890;2023-10-19T11:49:28;14.90;;;7.77;;
19358;SDS011;9815;52.334;20.890;2023-10-19T11:51:57;14.37;;;7.30;;
19358;SDS011;9815;52.334;20.890;2023-10-19T11:54:25;11.23;;;6.83;;
19358;SDS011;9815;52.334;20.890;2023-10-19T11:56:54;15.97;;;7.57;;
19358;SDS011;9815;52.334;20.890;2023-10-19T11:59:23;11.63;;;7.43;;
19358;SDS011;9815;52.334;20.890;2023-10-19T12:01:53;15.33;;;7.07;;
19358;SDS011;9815;52.334;20.890;2023-10-19T12:04:23;15.37;;;7.77;;
19358;SDS011;9815;52.334;20.890;2023-10-19T12:06:52;13.13;;;7.57;;
19358;SDS011;9815;52.334;20.890;2023-10-19T12:09:21;15.37;;;7.93;;
19358;SDS011;9815;52.334;20.890;2023-10-19T12:11:51;18.00;;;8.47;;
19358;SDS011;9815;52.334;20.890;2023-10-19T12:14:22;21.90;;;7.87;;
19358;SDS011;9815;52.334;20.890;2023-10-19T12:16:51;15.93;;;7.97;;
19358;SDS011;9815;52.334;20.890;2023-10-19T12:19:19;11.57;;;7.37;;
19358;SDS011;9815;52.334;20.890;2023-10-19T12:21:48;14.07;;;7.73;;
19358;SDS011;9815;52.334;20.890;2023-10-19T12:24:18;17.33;;;7.43;;
19358;SDS011;9815;52.334;20.890;2023-10-19T12:26:47;15.13;;;8.53;;
19358;SDS011;9815;52.334;20.890;2023-10-19T12:29:15;11.57;;;7.10;;
19358;SDS011;9815;52.334;20.890;2023-10-19T12:31:48;19.83;;;7.67;;
19358;SDS011;9815;52.334;20.890;2023-10-19T12:34:17;16.93;;;7.30;;
19358;SDS011;9815;52.334;20.890;2023-10-19T12:36:45;12.77;;;7.30;;
19358;SDS011;9815;52.334;20.890;2023-10-19T12:39:16;16.10;;;7.77;;
19358;SDS011;9815;52.334;20.890;2023-10-19T12:41:58;13.60;;;7.43;;
19358;SDS011;9815;52.334;20.890;2023-10-19T12:44:27;12.30;;;7.50;;
19358;SDS011;9815;52.334;20.890;2023-10-19T12:47:00;12.50;;;7.30;;
19358;SDS011;9815;52.334;20.890;2023-10-19T12:49:30;22.23;;;7.70;;
19358;SDS011;9815;52.334;20.890;2023-10-19T12:51:59;19.30;;;8.23;;
19358;SDS011;9815;52.334;20.890;2023-10-19T12:54:29;14.17;;;7.50;;
19358;SDS011;9815;52.334;20.890;2023-10-19T12:56:58;13.83;;;8.13;;
19358;SDS011;9815;52.334;20.890;2023-10-19T12:59:26;11.63;;;7.47;;
19358;SDS011;9815;52.334;20.890;2023-10-19T13:01:55;21.53;;;7.67;;
19358;SDS011;9815;52.334;20.890;2023-10-19T13:04:27;14.87;;;8.00;;
19358;SDS011;9815;52.334;20.890;2023-10-19T13:06:57;13.80;;;8.13;;
19358;SDS011;9815;52.334;20.890;2023-10-19T13:09:26;14.40;;;8.23;;
19358;SDS011;9815;52.334;20.890;2023-10-19T13:11:59;16.10;;;8.40;;
19358;SDS011;9815;52.334;20.890;2023-10-19T13:14:27;19.40;;;8.87;;
19358;SDS011;9815;52.334;20.890;2023-10-19T13:16:56;15.97;;;8.30;;
19358;SDS011;9815;52.334;20.890;2023-10-19T13:19:27;15.70;;;7.97;;
19358;SDS011;9815;52.334;20.890;2023-10-19T13:21:55;14.30;;;8.00;;
19358;SDS011;9815;52.334;20.890;2023-10-19T13:24:27;20.37;;;9.57;;
19358;SDS011;9815;52.334;20.890;2023-10-19T13:26:58;16.03;;;9.00;;
19358;SDS011;9815;52.334;20.890;2023-10-19T13:29:26;16.30;;;9.47;;
19358;SDS011;9815;52.334;20.890;2023-10-19T13:31:57;15.73;;;8.57;;
19358;SDS011;9815;52.334;20.890;2023-10-19T13:34:26;15.93;;;9.20;;
19358;SDS011;9815;52.334;20.890;2023-10-19T13:36:55;15.03;;;8.87;;
19358;SDS011;9815;52.334;20.890;2023-10-19T13:39:23;17.20;;;9.10;;
19358;SDS011;9815;52.334;20.890;2023-10-19T13:41:54;25.93;;;9.10;;
19358;SDS011;9815;52.334;20.890;2023-10-19T13:44:24;14.27;;;8.77;;
19358;SDS011;9815;52.334;20.890;2023-10-19T13:46:53;14.87;;;8.83;;
19358;SDS011;9815;52.334;20.890;2023-10-19T13:49:21;18.00;;;8.70;;
19358;SDS011;9815;52.334;20.890;2023-10-19T13:51:51;21.30;;;9.53;;
19358;SDS011;9815;52.334;20.890;2023-10-19T13:54:19;16.90;;;9.07;;
19358;SDS011;9815;52.334;20.890;2023-10-19T13:56:47;17.20;;;8.90;;
19358;SDS011;9815;52.334;20.890;2023-10-19T13:59:16;22.87;;;9.60;;
19358;SDS011;9815;52.334;20.890;2023-10-19T14:01:44;17.20;;;9.50;;
19358;SDS011;9815;52.334;20.890;2023-10-19T14:04:13;16.53;;;9.67;;
19358;SDS011;9815;52.334;20.890;2023-10-19T14:06:41;16.93;;;9.47;;
19358;SDS011;9815;52.334;20.890;2023-10-19T14:09:11;22.80;;;9.40;;
19358;SDS011;9815;52.334;20.890;2023-10-19T14:11:40;17.03;;;9.23;;
19358;SDS011;9815;52.334;20.890;2023-10-19T14:14:08;21.53;;;10.23;;
19358;SDS011;9815;52.334;20.890;2023-10-19T14:16:37;21.10;;;10.43;;
19358;SDS011;9815;52.334;20.890;2023-10-19T14:19:06;20.87;;;11.07;;
19358;SDS011;9815;52.334;20.890;2023-10-19T14:21:35;18.07;;;10.43;;
19358;SDS011;9815;52.334;20.890;2023-10-19T14:24:07;18.17;;;9.83;;
19358;SDS011;9815;52.334;20.890;2023-10-19T14:26:37;17.73;;;10.17;;
19358;SDS011;9815;52.334;20.890;2023-10-19T14:29:09;18.50;;;10.37;;
19358;SDS011;9815;52.334;20.890;2023-10-19T14:31:38;20.33;;;9.90;;
19358;SDS011;9815;52.334;20.890;2023-10-19T14:34:07;17.33;;;10.10;;
19358;SDS011;9815;52.334;20.890;2023-10-19T14:36:35;22.23;;;10.07;;
19358;SDS011;9815;52.334;20.890;2023-10-19T14:39:04;21.57;;;10.10;;
19358;SDS011;9815;52.334;20.890;2023-10-19T14:41:32;22.13;;;10.00;;
19358;SDS011;9815;52.334;20.890;2023-10-19T14:44:02;20.97;;;11.60;;
19358;SDS011;9815;52.334;20.890;2023-10-19T14:46:33;34.30;;;19.17;;
19358;SDS011;9815;52.334;20.890;2023-10-19T14:49:01;39.00;;;19.60;;
19358;SDS011;9815;52.334;20.890;2023-10-19T14:51:30;25.47;;;13.03;;
19358;SDS011;9815;52.334;20.890;2023-10-19T14:53:58;20.80;;;11.30;;